Terminal Aerodrome Forecast
Issued by NWS

Home | Current Version | Previous Version | Text Only | Print | Product List | Glossary On
Versions: 1 2 3 4 5 6 7 8 9 10 11 12 13 14 15 16 17 18 19 20 21 22 23 24
951
FTPA31 PHFO 050308 AAB
TAFHNY
TAF AMD
PHNY 050308Z 0503/0524 17010KT P6SM VCSH SCT015 SCT035 BKN045
     FM052000 17010KT P6SM SCT015 BKN045=

USA.gov is the U.S. government's official web portal to all federal, state and local government web resources and services.